sensor_id;sensor_type;location;lat;lon;timestamp;P1;durP1;ratioP1;P2;durP2;ratioP2
46653;SDS011;38960;51.074;17.004;2022-08-19T00:01:23;13.43;;;7.15;;
46653;SDS011;38960;51.074;17.004;2022-08-19T00:03:50;10.25;;;6.20;;
46653;SDS011;38960;51.074;17.004;2022-08-19T00:06:15;11.55;;;7.15;;
46653;SDS011;38960;51.074;17.004;2022-08-19T00:08:41;16.50;;;6.20;;
46653;SDS011;38960;51.074;17.004;2022-08-19T00:11:06;12.07;;;6.70;;
46653;SDS011;38960;51.074;17.004;2022-08-19T00:13:32;8.70;;;6.90;;
46653;SDS011;38960;51.074;17.004;2022-08-19T00:15:58;11.75;;;6.88;;
46653;SDS011;38960;51.074;17.004;2022-08-19T00:18:24;10.52;;;6.57;;
46653;SDS011;38960;51.074;17.004;2022-08-19T00:20:51;7.25;;;6.05;;
46653;SDS011;38960;51.074;17.004;2022-08-19T00:23:16;11.18;;;6.40;;
46653;SDS011;38960;51.074;17.004;2022-08-19T00:25:42;8.57;;;6.00;;
46653;SDS011;38960;51.074;17.004;2022-08-19T00:28:07;11.48;;;6.25;;
46653;SDS011;38960;51.074;17.004;2022-08-19T00:30:33;11.32;;;6.88;;
46653;SDS011;38960;51.074;17.004;2022-08-19T00:32:59;13.00;;;7.53;;
46653;SDS011;38960;51.074;17.004;2022-08-19T00:35:24;11.73;;;7.30;;
46653;SDS011;38960;51.074;17.004;2022-08-19T00:37:52;10.85;;;6.45;;
46653;SDS011;38960;51.074;17.004;2022-08-19T00:40:18;11.60;;;6.70;;
46653;SDS011;38960;51.074;17.004;2022-08-19T00:42:45;7.85;;;6.57;;
46653;SDS011;38960;51.074;17.004;2022-08-19T00:45:12;11.38;;;6.45;;
46653;SDS011;38960;51.074;17.004;2022-08-19T00:47:43;11.90;;;6.47;;
46653;SDS011;38960;51.074;17.004;2022-08-19T00:50:09;11.48;;;7.00;;
46653;SDS011;38960;51.074;17.004;2022-08-19T00:52:37;9.68;;;6.90;;
46653;SDS011;38960;51.074;17.004;2022-08-19T00:55:08;11.43;;;6.68;;
46653;SDS011;38960;51.074;17.004;2022-08-19T00:57:38;12.57;;;6.55;;
46653;SDS011;38960;51.074;17.004;2022-08-19T01:00:07;8.20;;;7.30;;
46653;SDS011;38960;51.074;17.004;2022-08-19T01:02:36;13.65;;;7.15;;
46653;SDS011;38960;51.074;17.004;2022-08-19T01:05:03;12.55;;;6.95;;
46653;SDS011;38960;51.074;17.004;2022-08-19T01:07:32;8.88;;;6.72;;
46653;SDS011;38960;51.074;17.004;2022-08-19T01:09:59;12.20;;;6.90;;
46653;SDS011;38960;51.074;17.004;2022-08-19T01:12:24;11.65;;;7.10;;
46653;SDS011;38960;51.074;17.004;2022-08-19T01:14:50;9.30;;;7.03;;
46653;SDS011;38960;51.074;17.004;2022-08-19T01:17:16;10.30;;;6.78;;
46653;SDS011;38960;51.074;17.004;2022-08-19T01:19:42;10.60;;;7.43;;
46653;SDS011;38960;51.074;17.004;2022-08-19T01:24:37;11.25;;;6.72;;
46653;SDS011;38960;51.074;17.004;2022-08-19T01:27:06;10.27;;;7.43;;
46653;SDS011;38960;51.074;17.004;2022-08-19T01:29:32;7.68;;;6.75;;
46653;SDS011;38960;51.074;17.004;2022-08-19T01:31:58;9.80;;;6.95;;
46653;SDS011;38960;51.074;17.004;2022-08-19T01:34:25;10.95;;;6.50;;
46653;SDS011;38960;51.074;17.004;2022-08-19T01:36:50;9.00;;;6.47;;
46653;SDS011;38960;51.074;17.004;2022-08-19T01:39:18;7.93;;;5.88;;
46653;SDS011;38960;51.074;17.004;2022-08-19T01:41:45;10.05;;;6.90;;
46653;SDS011;38960;51.074;17.004;2022-08-19T01:44:11;8.52;;;6.97;;
46653;SDS011;38960;51.074;17.004;2022-08-19T01:46:37;8.38;;;6.53;;
46653;SDS011;38960;51.074;17.004;2022-08-19T01:49:04;7.50;;;6.70;;
46653;SDS011;38960;51.074;17.004;2022-08-19T01:51:30;8.77;;;7.20;;
46653;SDS011;38960;51.074;17.004;2022-08-19T01:53:56;8.18;;;6.32;;
46653;SDS011;38960;51.074;17.004;2022-08-19T01:56:22;8.55;;;6.82;;
46653;SDS011;38960;51.074;17.004;2022-08-19T01:59:08;10.07;;;7.20;;
46653;SDS011;38960;51.074;17.004;2022-08-19T02:01:36;8.90;;;6.90;;
46653;SDS011;38960;51.074;17.004;2022-08-19T02:04:02;9.38;;;6.28;;
46653;SDS011;38960;51.074;17.004;2022-08-19T02:06:28;12.38;;;7.07;;
46653;SDS011;38960;51.074;17.004;2022-08-19T02:08:53;10.05;;;6.63;;
46653;SDS011;38960;51.074;17.004;2022-08-19T02:11:21;11.00;;;7.25;;
46653;SDS011;38960;51.074;17.004;2022-08-19T02:13:50;7.70;;;6.88;;
46653;SDS011;38960;51.074;17.004;2022-08-19T02:16:16;7.90;;;6.65;;
46653;SDS011;38960;51.074;17.004;2022-08-19T02:18:43;7.53;;;6.57;;
46653;SDS011;38960;51.074;17.004;2022-08-19T02:21:08;11.20;;;6.97;;
46653;SDS011;38960;51.074;17.004;2022-08-19T02:23:34;10.05;;;6.80;;
46653;SDS011;38960;51.074;17.004;2022-08-19T02:25:59;8.07;;;7.15;;
46653;SDS011;38960;51.074;17.004;2022-08-19T02:28:25;7.90;;;7.10;;
46653;SDS011;38960;51.074;17.004;2022-08-19T02:30:51;11.23;;;7.13;;
46653;SDS011;38960;51.074;17.004;2022-08-19T02:33:16;12.70;;;7.07;;
46653;SDS011;38960;51.074;17.004;2022-08-19T02:35:43;9.75;;;7.07;;
46653;SDS011;38960;51.074;17.004;2022-08-19T02:38:09;9.32;;;6.57;;
46653;SDS011;38960;51.074;17.004;2022-08-19T02:40:55;14.10;;;7.53;;
46653;SDS011;38960;51.074;17.004;2022-08-19T02:43:22;12.43;;;7.93;;
46653;SDS011;38960;51.074;17.004;2022-08-19T02:45:49;11.10;;;7.57;;
46653;SDS011;38960;51.074;17.004;2022-08-19T02:48:16;8.40;;;6.82;;
46653;SDS011;38960;51.074;17.004;2022-08-19T02:50:43;8.52;;;7.50;;
46653;SDS011;38960;51.074;17.004;2022-08-19T02:53:08;7.60;;;6.75;;
46653;SDS011;38960;51.074;17.004;2022-08-19T02:55:34;10.82;;;7.25;;
46653;SDS011;38960;51.074;17.004;2022-08-19T02:58:00;14.13;;;7.47;;
46653;SDS011;38960;51.074;17.004;2022-08-19T03:00:25;14.35;;;7.15;;
46653;SDS011;38960;51.074;17.004;2022-08-19T03:02:51;7.88;;;6.78;;
46653;SDS011;38960;51.074;17.004;2022-08-19T03:05:17;11.45;;;7.30;;
46653;SDS011;38960;51.074;17.004;2022-08-19T03:07:43;11.45;;;7.72;;
46653;SDS011;38960;51.074;17.004;2022-08-19T03:10:09;14.02;;;8.05;;
46653;SDS011;38960;51.074;17.004;2022-08-19T03:12:35;11.98;;;7.35;;
46653;SDS011;38960;51.074;17.004;2022-08-19T03:15:03;9.93;;;7.53;;
46653;SDS011;38960;51.074;17.004;2022-08-19T03:17:29;7.95;;;7.15;;
46653;SDS011;38960;51.074;17.004;2022-08-19T03:19:55;9.00;;;7.82;;
46653;SDS011;38960;51.074;17.004;2022-08-19T03:22:20;10.90;;;8.02;;
46653;SDS011;38960;51.074;17.004;2022-08-19T03:24:46;10.15;;;7.90;;
46653;SDS011;38960;51.074;17.004;2022-08-19T03:27:11;11.05;;;7.20;;
46653;SDS011;38960;51.074;17.004;2022-08-19T03:29:37;12.95;;;7.57;;
46653;SDS011;38960;51.074;17.004;2022-08-19T03:32:04;9.85;;;8.40;;
46653;SDS011;38960;51.074;17.004;2022-08-19T03:34:30;11.07;;;8.25;;
46653;SDS011;38960;51.074;17.004;2022-08-19T03:36:58;11.48;;;8.50;;
46653;SDS011;38960;51.074;17.004;2022-08-19T03:39:25;9.15;;;7.72;;
46653;SDS011;38960;51.074;17.004;2022-08-19T03:41:52;10.27;;;7.65;;
46653;SDS011;38960;51.074;17.004;2022-08-19T03:44:20;11.82;;;7.78;;
46653;SDS011;38960;51.074;17.004;2022-08-19T03:46:48;15.10;;;7.95;;
46653;SDS011;38960;51.074;17.004;2022-08-19T03:49:15;9.77;;;8.25;;
46653;SDS011;38960;51.074;17.004;2022-08-19T03:51:41;10.23;;;8.00;;
46653;SDS011;38960;51.074;17.004;2022-08-19T03:54:08;13.57;;;8.20;;
46653;SDS011;38960;51.074;17.004;2022-08-19T03:56:37;9.13;;;7.57;;
46653;SDS011;38960;51.074;17.004;2022-08-19T03:59:03;10.30;;;8.88;;
46653;SDS011;38960;51.074;17.004;2022-08-19T04:01:30;12.10;;;8.68;;
46653;SDS011;38960;51.074;17.004;2022-08-19T04:03:56;13.05;;;8.57;;
46653;SDS011;38960;51.074;17.004;2022-08-19T04:06:23;16.60;;;8.82;;
46653;SDS011;38960;51.074;17.004;2022-08-19T04:08:51;11.90;;;9.27;;
46653;SDS011;38960;51.074;17.004;2022-08-19T04:11:20;13.02;;;9.63;;
46653;SDS011;38960;51.074;17.004;2022-08-19T04:13:48;12.43;;;9.27;;
46653;SDS011;38960;51.074;17.004;2022-08-19T04:16:14;11.15;;;8.68;;
46653;SDS011;38960;51.074;17.004;2022-08-19T04:18:40;10.75;;;9.05;;
46653;SDS011;38960;51.074;17.004;2022-08-19T04:21:06;17.70;;;9.05;;
46653;SDS011;38960;51.074;17.004;2022-08-19T04:23:33;11.88;;;9.57;;
46653;SDS011;38960;51.074;17.004;2022-08-19T04:25:58;13.45;;;8.90;;
46653;SDS011;38960;51.074;17.004;2022-08-19T04:28:24;12.45;;;9.05;;
46653;SDS011;38960;51.074;17.004;2022-08-19T04:30:52;17.98;;;10.00;;
46653;SDS011;38960;51.074;17.004;2022-08-19T04:33:20;12.60;;;10.13;;
46653;SDS011;38960;51.074;17.004;2022-08-19T04:35:48;15.48;;;9.75;;
46653;SDS011;38960;51.074;17.004;2022-08-19T04:38:15;10.98;;;8.95;;
46653;SDS011;38960;51.074;17.004;2022-08-19T04:40:44;11.68;;;9.20;;
46653;SDS011;38960;51.074;17.004;2022-08-19T04:43:29;11.73;;;9.45;;
46653;SDS011;38960;51.074;17.004;2022-08-19T04:45:56;12.57;;;9.80;;
46653;SDS011;38960;51.074;17.004;2022-08-19T04:48:21;14.55;;;8.77;;
46653;SDS011;38960;51.074;17.004;2022-08-19T04:50:51;14.55;;;9.52;;
46653;SDS011;38960;51.074;17.004;2022-08-19T04:53:26;17.30;;;10.25;;
46653;SDS011;38960;51.074;17.004;2022-08-19T04:55:54;14.18;;;9.38;;
46653;SDS011;38960;51.074;17.004;2022-08-19T04:58:21;10.98;;;9.65;;
46653;SDS011;38960;51.074;17.004;2022-08-19T05:00:47;13.02;;;10.52;;
46653;SDS011;38960;51.074;17.004;2022-08-19T05:03:13;14.95;;;10.20;;
46653;SDS011;38960;51.074;17.004;2022-08-19T05:05:42;16.27;;;10.20;;
46653;SDS011;38960;51.074;17.004;2022-08-19T05:08:11;12.88;;;9.40;;
46653;SDS011;38960;51.074;17.004;2022-08-19T05:10:38;19.40;;;10.32;;
46653;SDS011;38960;51.074;17.004;2022-08-19T05:13:05;11.95;;;9.45;;
46653;SDS011;38960;51.074;17.004;2022-08-19T05:15:30;15.63;;;10.57;;
46653;SDS011;38960;51.074;17.004;2022-08-19T05:17:56;16.45;;;10.00;;
46653;SDS011;38960;51.074;17.004;2022-08-19T05:20:40;15.13;;;11.00;;
46653;SDS011;38960;51.074;17.004;2022-08-19T05:23:24;15.70;;;10.15;;
46653;SDS011;38960;51.074;17.004;2022-08-19T05:25:50;13.27;;;9.70;;
46653;SDS011;38960;51.074;17.004;2022-08-19T05:28:17;15.10;;;9.20;;
46653;SDS011;38960;51.074;17.004;2022-08-19T05:30:43;12.90;;;9.55;;
46653;SDS011;38960;51.074;17.004;2022-08-19T05:33:10;11.35;;;10.07;;
46653;SDS011;38960;51.074;17.004;2022-08-19T05:35:37;16.15;;;10.85;;
46653;SDS011;38960;51.074;17.004;2022-08-19T05:38:03;12.43;;;10.50;;
46653;SDS011;38960;51.074;17.004;2022-08-19T05:40:29;17.35;;;11.23;;
46653;SDS011;38960;51.074;17.004;2022-08-19T05:42:55;14.57;;;11.27;;
46653;SDS011;38960;51.074;17.004;2022-08-19T05:45:21;12.60;;;10.63;;
46653;SDS011;38960;51.074;17.004;2022-08-19T05:47:47;19.35;;;11.15;;
46653;SDS011;38960;51.074;17.004;2022-08-19T05:50:12;12.35;;;9.50;;
46653;SDS011;38960;51.074;17.004;2022-08-19T05:52:38;13.52;;;10.25;;
46653;SDS011;38960;51.074;17.004;2022-08-19T05:55:03;13.77;;;9.75;;
46653;SDS011;38960;51.074;17.004;2022-08-19T05:57:30;12.73;;;10.15;;
46653;SDS011;38960;51.074;17.004;2022-08-19T05:59:56;11.50;;;10.40;;
46653;SDS011;38960;51.074;17.004;2022-08-19T06:02:22;13.73;;;10.13;;
46653;SDS011;38960;51.074;17.004;2022-08-19T06:04:48;16.20;;;10.95;;
46653;SDS011;38960;51.074;17.004;2022-08-19T06:07:14;16.77;;;10.65;;
46653;SDS011;38960;51.074;17.004;2022-08-19T06:09:40;14.30;;;9.82;;
46653;SDS011;38960;51.074;17.004;2022-08-19T06:12:21;15.38;;;10.35;;
46653;SDS011;38960;51.074;17.004;2022-08-19T06:15:24;14.70;;;10.40;;
46653;SDS011;38960;51.074;17.004;2022-08-19T06:17:53;15.82;;;9.95;;
46653;SDS011;38960;51.074;17.004;2022-08-19T06:20:18;15.73;;;9.52;;
46653;SDS011;38960;51.074;17.004;2022-08-19T06:22:45;16.33;;;9.77;;
46653;SDS011;38960;51.074;17.004;2022-08-19T06:25:12;14.23;;;9.82;;
46653;SDS011;38960;51.074;17.004;2022-08-19T06:27:38;13.85;;;10.15;;
46653;SDS011;38960;51.074;17.004;2022-08-19T06:30:04;17.08;;;9.93;;
46653;SDS011;38960;51.074;17.004;2022-08-19T06:32:30;14.85;;;9.38;;
46653;SDS011;38960;51.074;17.004;2022-08-19T06:34:56;12.45;;;9.52;;
46653;SDS011;38960;51.074;17.004;2022-08-19T06:37:22;13.18;;;9.10;;
46653;SDS011;38960;51.074;17.004;2022-08-19T06:39:48;16.77;;;8.13;;
46653;SDS011;38960;51.074;17.004;2022-08-19T06:42:14;11.68;;;7.80;;
46653;SDS011;38960;51.074;17.004;2022-08-19T06:44:45;11.77;;;8.15;;
46653;SDS011;38960;51.074;17.004;2022-08-19T06:47:13;12.98;;;8.50;;
46653;SDS011;38960;51.074;17.004;2022-08-19T06:49:40;15.23;;;7.65;;
46653;SDS011;38960;51.074;17.004;2022-08-19T06:52:06;13.32;;;8.00;;
46653;SDS011;38960;51.074;17.004;2022-08-19T06:54:32;11.40;;;7.97;;
46653;SDS011;38960;51.074;17.004;2022-08-19T06:56:58;15.77;;;8.18;;
46653;SDS011;38960;51.074;17.004;2022-08-19T06:59:27;12.65;;;8.35;;
46653;SDS011;38960;51.074;17.004;2022-08-19T07:01:54;12.15;;;7.72;;
46653;SDS011;38960;51.074;17.004;2022-08-19T07:04:22;12.25;;;7.95;;
46653;SDS011;38960;51.074;17.004;2022-08-19T07:06:49;9.02;;;7.57;;
46653;SDS011;38960;51.074;17.004;2022-08-19T07:09:17;14.90;;;7.88;;
46653;SDS011;38960;51.074;17.004;2022-08-19T07:11:43;11.30;;;6.78;;
46653;SDS011;38960;51.074;17.004;2022-08-19T07:14:13;9.73;;;7.13;;
46653;SDS011;38960;51.074;17.004;2022-08-19T07:16:39;9.35;;;6.60;;
46653;SDS011;38960;51.074;17.004;2022-08-19T07:19:05;18.33;;;7.13;;
46653;SDS011;38960;51.074;17.004;2022-08-19T07:21:30;11.75;;;7.05;;
46653;SDS011;38960;51.074;17.004;2022-08-19T07:23:56;8.65;;;6.55;;
46653;SDS011;38960;51.074;17.004;2022-08-19T07:26:23;12.00;;;6.47;;
46653;SDS011;38960;51.074;17.004;2022-08-19T07:28:50;11.95;;;6.28;;
46653;SDS011;38960;51.074;17.004;2022-08-19T07:31:17;11.55;;;7.45;;
46653;SDS011;38960;51.074;17.004;2022-08-19T07:33:45;9.20;;;5.75;;
46653;SDS011;38960;51.074;17.004;2022-08-19T07:36:12;9.90;;;5.63;;
46653;SDS011;38960;51.074;17.004;2022-08-19T07:38:40;12.75;;;6.47;;
46653;SDS011;38960;51.074;17.004;2022-08-19T07:41:09;14.20;;;6.63;;
46653;SDS011;38960;51.074;17.004;2022-08-19T07:43:36;10.37;;;6.97;;
46653;SDS011;38960;51.074;17.004;2022-08-19T07:46:02;8.98;;;6.10;;
46653;SDS011;38960;51.074;17.004;2022-08-19T07:48:28;11.43;;;5.80;;
46653;SDS011;38960;51.074;17.004;2022-08-19T07:50:57;7.50;;;5.82;;
46653;SDS011;38960;51.074;17.004;2022-08-19T07:53:27;6.88;;;5.43;;
46653;SDS011;38960;51.074;17.004;2022-08-19T07:55:53;6.68;;;4.97;;
46653;SDS011;38960;51.074;17.004;2022-08-19T07:58:19;12.30;;;5.55;;
46653;SDS011;38960;51.074;17.004;2022-08-19T08:00:46;8.85;;;4.70;;
46653;SDS011;38960;51.074;17.004;2022-08-19T08:03:14;6.72;;;5.10;;
46653;SDS011;38960;51.074;17.004;2022-08-19T08:05:40;8.85;;;4.82;;
46653;SDS011;38960;51.074;17.004;2022-08-19T08:08:25;6.63;;;5.38;;
46653;SDS011;38960;51.074;17.004;2022-08-19T08:11:09;9.52;;;5.60;;
46653;SDS011;38960;51.074;17.004;2022-08-19T08:13:35;8.30;;;5.47;;
46653;SDS011;38960;51.074;17.004;2022-08-19T08:16:01;10.82;;;4.85;;
46653;SDS011;38960;51.074;17.004;2022-08-19T08:18:27;10.25;;;4.97;;
46653;SDS011;38960;51.074;17.004;2022-08-19T08:20:53;6.68;;;4.80;;
46653;SDS011;38960;51.074;17.004;2022-08-19T08:23:19;8.60;;;4.85;;
46653;SDS011;38960;51.074;17.004;2022-08-19T08:25:49;11.00;;;4.88;;
46653;SDS011;38960;51.074;17.004;2022-08-19T08:28:20;7.90;;;4.93;;
46653;SDS011;38960;51.074;17.004;2022-08-19T08:30:46;10.90;;;5.70;;
46653;SDS011;38960;51.074;17.004;2022-08-19T08:33:13;5.35;;;4.57;;
46653;SDS011;38960;51.074;17.004;2022-08-19T08:35:39;8.18;;;4.45;;
46653;SDS011;38960;51.074;17.004;2022-08-19T08:38:06;10.70;;;4.88;;
46653;SDS011;38960;51.074;17.004;2022-08-19T08:43:09;7.07;;;5.70;;
46653;SDS011;38960;51.074;17.004;2022-08-19T08:48:34;6.80;;;5.20;;
46653;SDS011;38960;51.074;17.004;2022-08-19T08:51:05;7.93;;;5.50;;
46653;SDS011;38960;51.074;17.004;2022-08-19T08:53:35;6.15;;;4.88;;
46653;SDS011;38960;51.074;17.004;2022-08-19T08:56:02;8.38;;;4.35;;
46653;SDS011;38960;51.074;17.004;2022-08-19T08:58:30;10.65;;;4.53;;
46653;SDS011;38960;51.074;17.004;2022-08-19T09:00:59;13.20;;;4.50;;
46653;SDS011;38960;51.074;17.004;2022-08-19T09:03:26;17.60;;;5.00;;
46653;SDS011;38960;51.074;17.004;2022-08-19T09:05:56;8.80;;;5.07;;
46653;SDS011;38960;51.074;17.004;2022-08-19T09:11:19;7.13;;;4.38;;
46653;SDS011;38960;51.074;17.004;2022-08-19T09:16:50;7.68;;;4.68;;
46653;SDS011;38960;51.074;17.004;2022-08-19T09:19:16;6.18;;;4.47;;
46653;SDS011;38960;51.074;17.004;2022-08-19T09:21:42;6.93;;;4.55;;
46653;SDS011;38960;51.074;17.004;2022-08-19T09:24:08;6.00;;;3.85;;
46653;SDS011;38960;51.074;17.004;2022-08-19T09:26:34;6.43;;;3.97;;
46653;SDS011;38960;51.074;17.004;2022-08-19T09:28:59;10.25;;;4.70;;
46653;SDS011;38960;51.074;17.004;2022-08-19T09:31:28;10.30;;;5.15;;
46653;SDS011;38960;51.074;17.004;2022-08-19T09:33:54;9.63;;;4.27;;
46653;SDS011;38960;51.074;17.004;2022-08-19T09:36:22;7.15;;;4.57;;
46653;SDS011;38960;51.074;17.004;2022-08-19T09:38:50;10.80;;;4.88;;
46653;SDS011;38960;51.074;17.004;2022-08-19T09:41:17;9.30;;;4.82;;
46653;SDS011;38960;51.074;17.004;2022-08-19T09:43:45;5.57;;;4.72;;
46653;SDS011;38960;51.074;17.004;2022-08-19T09:46:12;7.53;;;4.40;;
46653;SDS011;38960;51.074;17.004;2022-08-19T09:48:39;9.15;;;4.63;;
46653;SDS011;38960;51.074;17.004;2022-08-19T09:51:07;7.43;;;4.38;;
46653;SDS011;38960;51.074;17.004;2022-08-19T09:53:36;8.32;;;4.95;;
46653;SDS011;38960;51.074;17.004;2022-08-19T09:56:03;9.68;;;4.47;;
46653;SDS011;38960;51.074;17.004;2022-08-19T09:58:29;6.35;;;4.30;;
46653;SDS011;38960;51.074;17.004;2022-08-19T10:00:55;6.95;;;4.63;;
46653;SDS011;38960;51.074;17.004;2022-08-19T10:03:22;10.13;;;5.10;;
46653;SDS011;38960;51.074;17.004;2022-08-19T10:05:47;9.32;;;5.05;;
46653;SDS011;38960;51.074;17.004;2022-08-19T10:08:13;7.93;;;4.65;;
46653;SDS011;38960;51.074;17.004;2022-08-19T10:10:43;11.57;;;4.85;;
46653;SDS011;38960;51.074;17.004;2022-08-19T10:13:09;7.60;;;4.85;;
46653;SDS011;38960;51.074;17.004;2022-08-19T10:15:35;6.95;;;4.40;;
46653;SDS011;38960;51.074;17.004;2022-08-19T10:18:04;10.05;;;4.38;;
46653;SDS011;38960;51.074;17.004;2022-08-19T10:20:30;7.38;;;4.15;;
46653;SDS011;38960;51.074;17.004;2022-08-19T10:22:56;5.82;;;4.05;;
46653;SDS011;38960;51.074;17.004;2022-08-19T10:25:21;8.52;;;4.28;;
46653;SDS011;38960;51.074;17.004;2022-08-19T10:27:47;7.10;;;4.13;;
46653;SDS011;38960;51.074;17.004;2022-08-19T10:30:12;10.48;;;4.38;;
46653;SDS011;38960;51.074;17.004;2022-08-19T10:32:38;10.10;;;4.28;;
46653;SDS011;38960;51.074;17.004;2022-08-19T10:35:03;7.72;;;3.85;;
46653;SDS011;38960;51.074;17.004;2022-08-19T10:37:34;7.18;;;4.22;;
46653;SDS011;38960;51.074;17.004;2022-08-19T10:40:02;6.55;;;4.13;;
46653;SDS011;38960;51.074;17.004;2022-08-19T10:42:29;8.60;;;4.20;;
46653;SDS011;38960;51.074;17.004;2022-08-19T10:44:56;8.70;;;4.05;;
46653;SDS011;38960;51.074;17.004;2022-08-19T10:47:22;5.50;;;3.95;;
46653;SDS011;38960;51.074;17.004;2022-08-19T10:49:48;11.60;;;3.92;;
46653;SDS011;38960;51.074;17.004;2022-08-19T10:52:33;14.43;;;4.60;;
46653;SDS011;38960;51.074;17.004;2022-08-19T10:55:02;8.88;;;4.07;;
46653;SDS011;38960;51.074;17.004;2022-08-19T10:57:48;6.82;;;4.20;;
46653;SDS011;38960;51.074;17.004;2022-08-19T11:00:14;8.80;;;4.60;;
46653;SDS011;38960;51.074;17.004;2022-08-19T11:02:40;6.70;;;3.97;;
46653;SDS011;38960;51.074;17.004;2022-08-19T11:05:07;7.47;;;4.07;;
46653;SDS011;38960;51.074;17.004;2022-08-19T11:07:36;11.35;;;4.53;;
46653;SDS011;38960;51.074;17.004;2022-08-19T11:10:03;9.02;;;4.38;;
46653;SDS011;38960;51.074;17.004;2022-08-19T11:12:29;7.68;;;3.95;;
46653;SDS011;38960;51.074;17.004;2022-08-19T11:14:55;5.47;;;4.10;;
46653;SDS011;38960;51.074;17.004;2022-08-19T11:17:20;6.60;;;4.45;;
46653;SDS011;38960;51.074;17.004;2022-08-19T11:19:48;9.35;;;4.38;;
46653;SDS011;38960;51.074;17.004;2022-08-19T11:22:14;12.48;;;4.22;;
46653;SDS011;38960;51.074;17.004;2022-08-19T11:24:40;6.85;;;4.35;;
46653;SDS011;38960;51.074;17.004;2022-08-19T11:27:07;7.03;;;3.90;;
46653;SDS011;38960;51.074;17.004;2022-08-19T11:29:34;9.52;;;3.67;;
46653;SDS011;38960;51.074;17.004;2022-08-19T11:32:05;7.05;;;2.97;;
46653;SDS011;38960;51.074;17.004;2022-08-19T11:34:34;10.32;;;3.25;;
46653;SDS011;38960;51.074;17.004;2022-08-19T11:37:00;5.57;;;2.70;;
46653;SDS011;38960;51.074;17.004;2022-08-19T11:39:27;12.30;;;3.35;;
46653;SDS011;38960;51.074;17.004;2022-08-19T11:41:55;3.28;;;2.33;;
46653;SDS011;38960;51.074;17.004;2022-08-19T11:44:22;5.28;;;2.58;;
46653;SDS011;38960;51.074;17.004;2022-08-19T11:46:47;7.28;;;3.63;;
46653;SDS011;38960;51.074;17.004;2022-08-19T11:49:17;4.47;;;2.90;;
46653;SDS011;38960;51.074;17.004;2022-08-19T11:51:46;5.13;;;3.20;;
46653;SDS011;38960;51.074;17.004;2022-08-19T11:54:14;7.45;;;2.88;;
46653;SDS011;38960;51.074;17.004;2022-08-19T11:56:40;4.88;;;3.17;;
46653;SDS011;38960;51.074;17.004;2022-08-19T11:59:06;10.73;;;3.75;;
46653;SDS011;38960;51.074;17.004;2022-08-19T12:01:32;9.60;;;3.05;;
46653;SDS011;38960;51.074;17.004;2022-08-19T12:03:59;6.32;;;2.75;;
46653;SDS011;38960;51.074;17.004;2022-08-19T12:06:28;7.68;;;2.97;;
46653;SDS011;38960;51.074;17.004;2022-08-19T12:08:55;7.10;;;2.60;;
46653;SDS011;38960;51.074;17.004;2022-08-19T12:11:22;8.25;;;3.97;;
46653;SDS011;38960;51.074;17.004;2022-08-19T12:13:47;4.90;;;3.30;;
46653;SDS011;38960;51.074;17.004;2022-08-19T12:16:15;10.13;;;4.03;;
46653;SDS011;38960;51.074;17.004;2022-08-19T12:18:43;9.65;;;3.50;;
46653;SDS011;38960;51.074;17.004;2022-08-19T12:21:10;5.13;;;3.17;;
46653;SDS011;38960;51.074;17.004;2022-08-19T12:23:37;7.32;;;2.92;;
46653;SDS011;38960;51.074;17.004;2022-08-19T12:26:03;7.18;;;2.85;;
46653;SDS011;38960;51.074;17.004;2022-08-19T12:28:29;5.75;;;3.13;;
46653;SDS011;38960;51.074;17.004;2022-08-19T12:30:55;5.20;;;3.08;;
46653;SDS011;38960;51.074;17.004;2022-08-19T12:33:21;9.00;;;3.40;;
46653;SDS011;38960;51.074;17.004;2022-08-19T12:35:50;8.10;;;3.33;;
46653;SDS011;38960;51.074;17.004;2022-08-19T12:38:16;9.68;;;3.40;;
46653;SDS011;38960;51.074;17.004;2022-08-19T12:40:41;5.63;;;3.03;;
46653;SDS011;38960;51.074;17.004;2022-08-19T12:43:10;13.18;;;3.00;;
46653;SDS011;38960;51.074;17.004;2022-08-19T12:45:36;5.53;;;2.95;;
46653;SDS011;38960;51.074;17.004;2022-08-19T12:48:02;5.88;;;3.00;;
46653;SDS011;38960;51.074;17.004;2022-08-19T12:50:29;9.68;;;3.40;;
46653;SDS011;38960;51.074;17.004;2022-08-19T12:52:55;6.82;;;3.17;;
46653;SDS011;38960;51.074;17.004;2022-08-19T12:55:21;5.38;;;2.65;;
46653;SDS011;38960;51.074;17.004;2022-08-19T12:57:47;4.57;;;2.65;;
46653;SDS011;38960;51.074;17.004;2022-08-19T13:00:17;5.75;;;2.67;;
46653;SDS011;38960;51.074;17.004;2022-08-19T13:02:46;6.50;;;3.10;;
46653;SDS011;38960;51.074;17.004;2022-08-19T13:05:15;11.38;;;3.05;;
46653;SDS011;38960;51.074;17.004;2022-08-19T13:07:45;5.90;;;2.72;;
46653;SDS011;38960;51.074;17.004;2022-08-19T13:10:11;8.60;;;2.70;;
46653;SDS011;38960;51.074;17.004;2022-08-19T13:12:39;11.18;;;2.70;;
46653;SDS011;38960;51.074;17.004;2022-08-19T13:15:06;7.00;;;3.10;;
46653;SDS011;38960;51.074;17.004;2022-08-19T13:17:33;6.60;;;2.92;;
46653;SDS011;38960;51.074;17.004;2022-08-19T13:19:59;11.32;;;3.47;;
46653;SDS011;38960;51.074;17.004;2022-08-19T13:22:25;6.68;;;3.03;;
46653;SDS011;38960;51.074;17.004;2022-08-19T13:24:50;10.73;;;3.22;;
46653;SDS011;38960;51.074;17.004;2022-08-19T13:27:16;6.95;;;3.42;;
46653;SDS011;38960;51.074;17.004;2022-08-19T13:29:41;10.60;;;2.83;;
46653;SDS011;38960;51.074;17.004;2022-08-19T13:32:25;5.63;;;3.17;;
46653;SDS011;38960;51.074;17.004;2022-08-19T13:35:26;6.82;;;3.42;;
46653;SDS011;38960;51.074;17.004;2022-08-19T13:37:52;9.55;;;3.28;;
46653;SDS011;38960;51.074;17.004;2022-08-19T13:40:18;6.80;;;3.00;;
46653;SDS011;38960;51.074;17.004;2022-08-19T13:42:48;7.65;;;2.83;;
46653;SDS011;38960;51.074;17.004;2022-08-19T13:45:18;6.18;;;2.97;;
46653;SDS011;38960;51.074;17.004;2022-08-19T13:50:15;8.18;;;2.75;;
46653;SDS011;38960;51.074;17.004;2022-08-19T13:52:43;8.88;;;3.08;;
46653;SDS011;38960;51.074;17.004;2022-08-19T13:55:09;8.55;;;3.45;;
46653;SDS011;38960;51.074;17.004;2022-08-19T13:57:36;5.22;;;3.08;;
46653;SDS011;38960;51.074;17.004;2022-08-19T14:00:05;15.23;;;3.13;;
46653;SDS011;38960;51.074;17.004;2022-08-19T14:02:33;8.82;;;3.10;;
46653;SDS011;38960;51.074;17.004;2022-08-19T14:04:59;5.80;;;3.03;;
46653;SDS011;38960;51.074;17.004;2022-08-19T14:07:25;9.60;;;3.25;;
46653;SDS011;38960;51.074;17.004;2022-08-19T14:09:50;11.98;;;3.55;;
46653;SDS011;38960;51.074;17.004;2022-08-19T14:12:19;10.18;;;3.45;;
46653;SDS011;38960;51.074;17.004;2022-08-19T14:14:45;4.72;;;2.92;;
46653;SDS011;38960;51.074;17.004;2022-08-19T14:17:11;6.43;;;3.03;;
46653;SDS011;38960;51.074;17.004;2022-08-19T14:19:37;4.45;;;3.33;;
46653;SDS011;38960;51.074;17.004;2022-08-19T14:22:02;7.40;;;2.97;;
46653;SDS011;38960;51.074;17.004;2022-08-19T14:24:28;5.22;;;3.17;;
46653;SDS011;38960;51.074;17.004;2022-08-19T14:26:53;5.40;;;3.15;;
46653;SDS011;38960;51.074;17.004;2022-08-19T14:29:19;6.70;;;3.17;;
46653;SDS011;38960;51.074;17.004;2022-08-19T14:31:44;7.22;;;3.70;;
46653;SDS011;38960;51.074;17.004;2022-08-19T14:34:10;6.30;;;3.10;;
46653;SDS011;38960;51.074;17.004;2022-08-19T14:36:36;4.15;;;3.10;;
46653;SDS011;38960;51.074;17.004;2022-08-19T14:39:02;5.90;;;3.03;;
46653;SDS011;38960;51.074;17.004;2022-08-19T14:41:28;7.18;;;3.53;;
46653;SDS011;38960;51.074;17.004;2022-08-19T14:43:55;14.35;;;4.15;;